createdAt,value
2024-01-07T00:00:52.693Z,6.32
2024-01-07T00:03:57.388Z,5.95
2024-01-07T00:07:00.636Z,4.82
2024-01-07T00:10:04.646Z,5.22
2024-01-07T00:13:07.701Z,7.03
2024-01-07T00:16:11.129Z,5.55
2024-01-07T00:19:14.519Z,5.20
2024-01-07T00:22:18.767Z,6.50
2024-01-07T00:25:23.069Z,5.12
2024-01-07T00:28:26.410Z,5.03
2024-01-07T00:31:29.572Z,6.20
2024-01-07T00:34:35.621Z,6.32
2024-01-07T00:37:39.270Z,6.55
2024-01-07T00:40:42.583Z,6.45
2024-01-07T00:43:45.549Z,5.35
2024-01-07T00:46:49.328Z,7.28
2024-01-07T00:49:52.479Z,5.55
2024-01-07T00:52:58.781Z,5.78
2024-01-07T00:56:02.649Z,6.18
2024-01-07T00:59:12.377Z,4.85
2024-01-07T01:02:17.259Z,6.15
2024-01-07T01:05:20.769Z,5.97
2024-01-07T01:08:24.554Z,6.18
2024-01-07T01:11:29.100Z,5.65
2024-01-07T01:14:32.097Z,4.40
2024-01-07T01:17:35.411Z,6.00
2024-01-07T01:20:38.787Z,8.23
2024-01-07T01:23:42.077Z,7.25
2024-01-07T01:26:45.083Z,6.75
2024-01-07T01:29:48.453Z,6.65
2024-01-07T01:32:51.500Z,8.35
2024-01-07T01:35:55.540Z,7.12
2024-01-07T01:39:01.069Z,6.53
2024-01-07T01:42:05.975Z,8.70
2024-01-07T01:45:12.522Z,7.28
2024-01-07T01:48:16.752Z,7.40
2024-01-07T01:51:20.695Z,9.47
2024-01-07T01:54:24.942Z,10.00
2024-01-07T01:57:35.955Z,6.93
2024-01-07T02:00:39.543Z,6.60
2024-01-07T02:03:43.041Z,6.85
2024-01-07T02:06:47.144Z,6.25
2024-01-07T02:09:50.548Z,4.07
2024-01-07T02:12:56.676Z,5.10
2024-01-07T02:16:02.721Z,5.82
2024-01-07T02:19:07.335Z,4.93
2024-01-07T02:22:12.366Z,7.25
2024-01-07T02:25:20.171Z,5.70
2024-01-07T02:28:26.569Z,4.78
2024-01-07T02:31:29.884Z,6.68
2024-01-07T02:34:35.233Z,4.40
2024-01-07T02:37:40.350Z,9.27
2024-01-07T02:40:44.264Z,10.73
2024-01-07T02:43:47.789Z,7.30
2024-01-07T02:46:52.684Z,8.75
2024-01-07T02:49:56.112Z,8.63
2024-01-07T02:52:59.141Z,8.02
2024-01-07T02:56:02.431Z,6.93
2024-01-07T02:59:05.239Z,8.32
2024-01-07T03:02:08.564Z,8.23
2024-01-07T03:05:11.543Z,6.05
2024-01-07T03:08:14.743Z,7.05
2024-01-07T03:11:20.521Z,5.18
2024-01-07T03:14:24.589Z,4.32
2024-01-07T03:17:27.717Z,5.03
2024-01-07T03:20:32.963Z,2.62
2024-01-07T03:23:37.661Z,3.15
2024-01-07T03:26:44.743Z,3.42
2024-01-07T03:29:47.906Z,3.97
2024-01-07T03:32:51.261Z,3.10
2024-01-07T03:35:54.248Z,4.50
2024-01-07T03:38:58.813Z,5.30
2024-01-07T03:42:03.165Z,6.43
2024-01-07T03:45:06.683Z,8.55
2024-01-07T03:48:09.775Z,8.55
2024-01-07T03:51:13.211Z,8.50
2024-01-07T03:54:19.177Z,5.95
2024-01-07T03:57:23.016Z,11.73
2024-01-07T04:00:26.242Z,7.37
2024-01-07T04:03:31.125Z,10.32
2024-01-07T04:06:34.125Z,8.35
2024-01-07T04:09:37.848Z,8.82
2024-01-07T04:12:41.730Z,9.70
2024-01-07T04:15:45.339Z,11.48
2024-01-07T04:18:53.081Z,8.63
2024-01-07T04:21:58.643Z,7.15
2024-01-07T04:25:02.043Z,7.55
2024-01-07T04:28:05.430Z,6.85
2024-01-07T04:31:08.512Z,9.75
2024-01-07T04:34:12.837Z,7.43
2024-01-07T04:37:15.834Z,7.85
2024-01-07T04:40:19.958Z,10.00
2024-01-07T04:43:24.861Z,8.95
2024-01-07T04:46:28.247Z,9.18
2024-01-07T04:49:33.127Z,8.48
2024-01-07T04:55:41.898Z,4.82
2024-01-07T04:58:45.185Z,5.90
2024-01-07T05:01:48.346Z,5.65
2024-01-07T05:04:51.656Z,8.15
2024-01-07T05:07:56.429Z,6.95
2024-01-07T05:10:59.649Z,6.37
2024-01-07T05:14:03.826Z,5.43
2024-01-07T05:17:07.748Z,6.77
2024-01-07T05:20:12.228Z,8.85
2024-01-07T05:23:16.321Z,7.97
2024-01-07T05:26:19.435Z,7.78
2024-01-07T05:29:23.681Z,7.85
2024-01-07T05:32:26.711Z,7.03
2024-01-07T05:35:30.213Z,7.72
2024-01-07T05:38:33.507Z,9.57
2024-01-07T05:41:39.893Z,9.60
2024-01-07T05:44:43.737Z,9.35
2024-01-07T05:47:47.376Z,7.12
2024-01-07T05:50:51.482Z,8.80
2024-01-07T05:53:54.825Z,7.33
2024-01-07T05:56:57.675Z,6.30
2024-01-07T06:00:01.217Z,7.62
2024-01-07T06:03:03.943Z,7.78
2024-01-07T06:06:07.976Z,8.88
2024-01-07T06:09:11.021Z,8.32
2024-01-07T06:12:14.347Z,9.80
2024-01-07T06:15:17.280Z,9.93
2024-01-07T06:18:21.990Z,8.63
2024-01-07T06:21:25.058Z,10.53
2024-01-07T06:24:31.019Z,9.57
2024-01-07T06:27:34.689Z,9.25
2024-01-07T06:30:38.149Z,48.13
2024-01-07T06:33:44.053Z,81.78
2024-01-07T06:36:47.538Z,11.15
2024-01-07T06:39:51.492Z,7.90
2024-01-07T06:42:54.843Z,26.83
2024-01-07T06:46:01.512Z,11.68
2024-01-07T06:49:16.078Z,8.80
2024-01-07T06:52:24.225Z,8.75
2024-01-07T06:55:31.964Z,10.75
2024-01-07T06:58:34.880Z,15.32
2024-01-07T07:01:41.042Z,11.05
2024-01-07T07:04:45.564Z,9.30
2024-01-07T07:07:50.422Z,9.88
2024-01-07T07:10:58.654Z,12.20
2024-01-07T07:14:02.777Z,11.43
2024-01-07T07:17:05.941Z,10.85
2024-01-07T07:20:10.169Z,12.37
2024-01-07T07:23:13.186Z,10.93
2024-01-07T07:26:19.330Z,10.00
2024-01-07T07:29:23.836Z,9.07
2024-01-07T07:32:27.014Z,12.90
2024-01-07T07:35:29.876Z,9.50
2024-01-07T07:38:33.669Z,10.32
2024-01-07T07:41:36.668Z,9.07
2024-01-07T07:44:40.507Z,11.10
2024-01-07T07:47:46.736Z,10.20
2024-01-07T07:50:50.970Z,13.38
2024-01-07T07:53:53.911Z,13.68
2024-01-07T07:56:57.165Z,10.70
2024-01-07T08:00:02.547Z,12.82
2024-01-07T08:03:10.472Z,20.90
2024-01-07T08:06:15.965Z,19.25
2024-01-07T08:09:18.915Z,14.90
2024-01-07T08:12:22.118Z,18.02
2024-01-07T08:15:25.059Z,21.52
2024-01-07T08:18:30.185Z,49.33
2024-01-07T08:21:35.296Z,15.95
2024-01-07T08:24:40.810Z,114.57
2024-01-07T08:30:50.763Z,16.30
2024-01-07T08:33:53.954Z,134.23
2024-01-07T08:36:57.266Z,88.55
2024-01-07T08:40:00.794Z,83.53
2024-01-07T08:43:04.463Z,32.67
2024-01-07T08:46:08.015Z,30.45
2024-01-07T08:49:11.415Z,47.42
2024-01-07T08:52:16.814Z,95.80
2024-01-07T08:55:20.117Z,99.05
2024-01-07T08:58:23.151Z,68.00
2024-01-07T09:01:27.542Z,161.88
2024-01-07T09:04:30.582Z,229.80
2024-01-07T09:07:33.895Z,39.83
2024-01-07T09:10:36.816Z,85.40
2024-01-07T09:13:44.148Z,15.60
2024-01-07T09:16:47.650Z,32.70
2024-01-07T09:19:51.686Z,14.23
2024-01-07T09:22:54.632Z,13.23
2024-01-07T09:25:58.560Z,62.42
2024-01-07T09:29:02.744Z,11.02
2024-01-07T09:32:06.222Z,9.40
2024-01-07T09:35:11.813Z,6.25
2024-01-07T09:38:16.069Z,4.53
2024-01-07T09:41:19.485Z,7.15
2024-01-07T09:44:22.939Z,7.78
2024-01-07T09:47:26.087Z,6.80
2024-01-07T09:50:33.123Z,5.47
2024-01-07T09:53:37.299Z,4.20
2024-01-07T09:56:44.666Z,3.80
2024-01-07T09:59:48.215Z,4.70
2024-01-07T10:02:51.433Z,6.22
2024-01-07T10:05:54.762Z,3.67
2024-01-07T10:08:57.767Z,5.83
2024-01-07T10:12:01.765Z,4.87
2024-01-07T10:15:06.876Z,4.40
2024-01-07T10:18:11.094Z,4.20
2024-01-07T10:21:16.779Z,6.45
2024-01-07T10:24:20.799Z,4.75
2024-01-07T10:27:25.030Z,4.28
2024-01-07T10:30:37.560Z,10.47
2024-01-07T10:33:42.209Z,6.87
2024-01-07T10:36:46.304Z,8.15
2024-01-07T10:39:50.510Z,4.37
2024-01-07T10:42:54.401Z,5.67
2024-01-07T10:46:01.814Z,6.45
2024-01-07T10:49:22.673Z,4.90
2024-01-07T10:52:30.934Z,3.20
2024-01-07T10:55:37.945Z,5.32
2024-01-07T10:58:41.483Z,6.53
2024-01-07T11:01:46.506Z,4.70
2024-01-07T11:05:06.762Z,4.95
2024-01-07T11:08:32.378Z,3.25
2024-01-07T11:11:42.674Z,3.03
2024-01-07T11:14:48.705Z,4.47
2024-01-07T11:17:52.103Z,7.18
2024-01-07T11:20:55.445Z,4.43
2024-01-07T11:23:58.467Z,5.32
2024-01-07T11:27:04.879Z,6.37
2024-01-07T11:30:11.980Z,5.43
2024-01-07T11:33:18.685Z,4.75
2024-01-07T11:36:23.072Z,6.28
2024-01-07T11:39:26.245Z,4.95
2024-01-07T11:42:29.149Z,5.75
2024-01-07T11:45:33.128Z,5.00
2024-01-07T11:48:36.273Z,6.60
2024-01-07T11:51:39.827Z,6.37
2024-01-07T11:54:46.162Z,7.12
2024-01-07T11:57:49.467Z,8.07
2024-01-07T12:00:53.477Z,7.78
2024-01-07T12:03:57.061Z,5.47
2024-01-07T12:07:00.944Z,5.55
2024-01-07T12:10:04.457Z,5.85
2024-01-07T12:13:07.716Z,4.18
2024-01-07T12:16:12.415Z,6.80
2024-01-07T12:19:18.478Z,4.43
2024-01-07T12:22:21.932Z,4.72
2024-01-07T12:25:25.502Z,5.70
2024-01-07T12:31:37.383Z,2.70
2024-01-07T12:34:47.167Z,3.72
2024-01-07T12:37:50.499Z,5.03
2024-01-07T12:40:54.449Z,2.55
2024-01-07T12:43:58.712Z,5.25
2024-01-07T12:47:02.157Z,3.50
2024-01-07T12:50:06.301Z,4.25
2024-01-07T12:53:11.242Z,2.90
2024-01-07T12:56:15.371Z,5.40
2024-01-07T12:59:18.850Z,5.65
2024-01-07T13:02:21.865Z,4.93
2024-01-07T13:05:25.456Z,7.28
2024-01-07T13:08:28.636Z,2.90
2024-01-07T13:11:32.770Z,5.05
2024-01-07T13:14:36.468Z,5.57
2024-01-07T13:17:40.221Z,5.37
2024-01-07T13:20:43.163Z,5.72
2024-01-07T13:23:46.453Z,4.12
2024-01-07T13:26:49.745Z,6.75
2024-01-07T13:29:53.847Z,5.97
2024-01-07T13:32:58.829Z,7.43
2024-01-07T13:36:04.812Z,10.15
2024-01-07T13:39:09.026Z,5.12
2024-01-07T13:42:13.895Z,9.27
2024-01-07T13:45:17.968Z,7.40
2024-01-07T13:48:21.337Z,5.30
2024-01-07T13:51:25.736Z,5.55
2024-01-07T13:54:29.308Z,8.65
2024-01-07T13:57:33.213Z,8.88
2024-01-07T14:00:36.540Z,6.55
2024-01-07T14:03:42.904Z,6.68
2024-01-07T14:06:48.124Z,5.90
2024-01-07T14:09:51.470Z,7.45
2024-01-07T14:12:58.462Z,4.95
2024-01-07T14:16:02.969Z,5.78
2024-01-07T14:19:06.045Z,6.93
2024-01-07T14:22:09.483Z,9.55
2024-01-07T14:25:12.663Z,3.67
2024-01-07T14:28:16.750Z,7.18
2024-01-07T14:31:19.962Z,5.55
2024-01-07T14:34:24.745Z,3.58
2024-01-07T14:37:29.142Z,5.10
2024-01-07T14:40:32.403Z,5.37
2024-01-07T14:43:36.768Z,3.30
2024-01-07T14:46:40.807Z,3.92
2024-01-07T14:49:44.958Z,5.85
2024-01-07T14:52:48.496Z,7.65
2024-01-07T14:55:53.142Z,4.35
2024-01-07T14:58:56.775Z,6.53
2024-01-07T15:02:00.917Z,5.78
2024-01-07T15:05:06.162Z,7.85
2024-01-07T15:08:09.212Z,6.03
2024-01-07T15:11:12.549Z,5.45
2024-01-07T15:14:16.148Z,2.05
2024-01-07T15:17:19.778Z,6.72
2024-01-07T15:20:22.753Z,3.65
2024-01-07T15:23:26.002Z,4.20
2024-01-07T15:26:29.197Z,6.65
2024-01-07T15:29:32.502Z,6.70
2024-01-07T15:32:35.621Z,3.92
2024-01-07T15:35:39.003Z,3.35
2024-01-07T15:38:41.927Z,5.37
2024-01-07T15:41:46.492Z,5.32
2024-01-07T15:44:51.629Z,5.53
2024-01-07T15:47:56.118Z,10.13
2024-01-07T15:50:59.908Z,10.60
2024-01-07T15:54:03.214Z,5.97
2024-01-07T15:57:06.770Z,10.95
2024-01-07T16:00:10.885Z,9.60
2024-01-07T16:03:14.960Z,7.80
2024-01-07T16:06:18.044Z,10.05
2024-01-07T16:09:21.557Z,10.40
2024-01-07T16:12:28.732Z,8.95
2024-01-07T16:18:34.784Z,12.20
2024-01-07T16:21:40.420Z,9.65
2024-01-07T16:24:46.893Z,13.07
2024-01-07T16:27:50.241Z,10.15
2024-01-07T16:30:53.432Z,14.02
2024-01-07T16:33:56.916Z,5.72
2024-01-07T16:37:02.112Z,12.60
2024-01-07T16:40:13.389Z,13.35
2024-01-07T16:43:16.494Z,13.75
2024-01-07T16:46:20.879Z,13.52
2024-01-07T16:52:31.382Z,10.73
2024-01-07T16:55:34.301Z,12.45
2024-01-07T16:58:40.030Z,7.30
2024-01-07T17:01:44.946Z,12.65
2024-01-07T17:04:48.468Z,13.32
2024-01-07T17:07:51.631Z,12.32
2024-01-07T17:10:55.743Z,9.95
2024-01-07T17:13:58.697Z,12.73
2024-01-07T17:17:02.123Z,8.63
2024-01-07T17:20:05.883Z,9.23
2024-01-07T17:23:10.924Z,10.20
2024-01-07T17:26:14.112Z,9.60
2024-01-07T17:29:17.592Z,9.80
2024-01-07T17:32:24.142Z,10.00
2024-01-07T17:35:27.507Z,8.50
2024-01-07T17:38:30.831Z,12.75
2024-01-07T17:41:34.226Z,14.65
2024-01-07T17:44:42.694Z,13.90
2024-01-07T17:47:47.057Z,11.10
2024-01-07T17:50:49.884Z,7.62
2024-01-07T17:53:54.442Z,7.65
2024-01-07T17:56:57.344Z,8.63
2024-01-07T18:00:02.482Z,10.30
2024-01-07T18:03:10.837Z,4.22
2024-01-07T18:06:20.671Z,7.35
2024-01-07T18:09:24.427Z,2.83
2024-01-07T18:12:27.959Z,6.00
2024-01-07T18:15:31.939Z,9.27
2024-01-07T18:18:35.488Z,9.63
2024-01-07T18:21:38.532Z,8.13
2024-01-07T18:24:51.436Z,7.55
2024-01-07T18:27:54.521Z,7.55
2024-01-07T18:30:57.781Z,7.20
2024-01-07T18:34:02.011Z,7.50
2024-01-07T18:37:05.576Z,7.27
2024-01-07T18:40:10.817Z,7.43
2024-01-07T18:46:17.462Z,9.90
2024-01-07T18:49:22.541Z,10.90
2024-01-07T18:52:26.185Z,8.53
2024-01-07T18:55:30.179Z,9.65
2024-01-07T18:58:35.928Z,7.43
2024-01-07T19:01:41.016Z,6.95
2024-01-07T19:04:46.969Z,4.20
2024-01-07T19:07:50.337Z,7.55
2024-01-07T19:10:54.337Z,9.50
2024-01-07T19:13:57.830Z,6.85
2024-01-07T19:17:04.914Z,8.70
2024-01-07T19:20:09.273Z,7.83
2024-01-07T19:23:13.923Z,8.73
2024-01-07T19:26:17.347Z,9.53
2024-01-07T19:29:20.462Z,6.68
2024-01-07T19:32:24.638Z,5.00
2024-01-07T19:35:28.049Z,6.62
2024-01-07T19:38:34.710Z,10.15
2024-01-07T19:41:38.433Z,8.40
2024-01-07T19:44:42.412Z,8.27
2024-01-07T19:47:48.804Z,10.73
2024-01-07T19:50:52.220Z,6.12
2024-01-07T19:53:55.653Z,8.57
2024-01-07T19:57:01.127Z,9.40
2024-01-07T20:00:06.401Z,7.82
2024-01-07T20:03:12.595Z,9.85
2024-01-07T20:06:17.120Z,10.15
2024-01-07T20:09:20.287Z,12.02
2024-01-07T20:12:24.837Z,11.10
2024-01-07T20:15:27.915Z,10.23
2024-01-07T20:18:31.415Z,10.10
2024-01-07T20:21:37.479Z,8.85
2024-01-07T20:24:44.176Z,9.70
2024-01-07T20:27:47.548Z,9.00
2024-01-07T20:30:51.029Z,9.15
2024-01-07T20:33:54.413Z,10.32
2024-01-07T20:36:57.825Z,8.60
2024-01-07T20:40:00.771Z,6.28
2024-01-07T20:43:07.703Z,11.18
2024-01-07T20:46:10.805Z,8.45
2024-01-07T20:49:14.674Z,7.95
2024-01-07T20:52:20.099Z,8.48
2024-01-07T20:55:23.361Z,6.22
2024-01-07T20:58:31.191Z,9.57
2024-01-07T21:01:34.645Z,11.65
2024-01-07T21:04:38.725Z,10.55
2024-01-07T21:07:47.367Z,7.30
2024-01-07T21:10:50.500Z,10.40
2024-01-07T21:13:54.129Z,10.85
2024-01-07T21:16:58.122Z,6.90
2024-01-07T21:20:01.757Z,5.45
2024-01-07T21:23:07.758Z,9.80
2024-01-07T21:26:12.535Z,12.35
2024-01-07T21:29:15.603Z,14.30
2024-01-07T21:32:20.044Z,14.57
2024-01-07T21:35:23.152Z,10.93
2024-01-07T21:38:30.030Z,9.93
2024-01-07T21:41:33.517Z,12.90
2024-01-07T21:44:39.702Z,11.10
2024-01-07T21:47:45.239Z,9.88
2024-01-07T21:50:48.582Z,7.15
2024-01-07T21:53:52.084Z,17.15
2024-01-07T21:56:58.119Z,9.07
2024-01-07T22:00:01.176Z,14.38
2024-01-07T22:03:04.717Z,7.47
2024-01-07T22:06:08.169Z,14.02
2024-01-07T22:09:11.251Z,9.50
2024-01-07T22:12:14.652Z,13.13
2024-01-07T22:15:17.573Z,9.73
2024-01-07T22:18:21.626Z,7.68
2024-01-07T22:21:24.993Z,10.48
2024-01-07T22:24:29.665Z,9.90
2024-01-07T22:27:34.921Z,9.98
2024-01-07T22:30:39.652Z,16.80
2024-01-07T22:33:42.997Z,10.25
2024-01-07T22:36:47.318Z,9.90
2024-01-07T22:39:52.626Z,12.60
2024-01-07T22:42:56.474Z,13.52
2024-01-07T22:45:59.511Z,10.20
2024-01-07T22:49:03.428Z,16.25
2024-01-07T22:52:10.668Z,13.65
2024-01-07T22:55:14.256Z,11.93
2024-01-07T22:58:18.133Z,16.60
2024-01-07T23:01:28.902Z,10.15
2024-01-07T23:04:31.907Z,12.65
2024-01-07T23:07:35.142Z,12.05
2024-01-07T23:10:38.254Z,15.38
2024-01-07T23:13:41.843Z,12.65
2024-01-07T23:16:47.257Z,11.52
2024-01-07T23:19:50.588Z,7.40
2024-01-07T23:22:53.611Z,12.70
2024-01-07T23:25:57.107Z,12.70
2024-01-07T23:29:00.649Z,13.40
2024-01-07T23:32:05.558Z,10.68
2024-01-07T23:35:08.991Z,9.32
2024-01-07T23:38:13.183Z,15.50
2024-01-07T23:41:16.488Z,16.20
2024-01-07T23:44:20.303Z,14.10
2024-01-07T23:47:26.285Z,10.85
2024-01-07T23:50:31.131Z,10.68
2024-01-07T23:53:36.348Z,18.02
2024-01-07T23:59:45.621Z,11.93
